createdAt,value
2023-07-22T00:01:00.437Z,8.13
2023-07-22T00:03:35.403Z,7.97
2023-07-22T00:06:09.523Z,8.05
2023-07-22T00:08:38.182Z,7.75
2023-07-22T00:11:06.747Z,8.80
2023-07-22T00:13:34.168Z,7.30
2023-07-22T00:16:01.876Z,8.82
2023-07-22T00:18:29.498Z,7.05
2023-07-22T00:20:56.681Z,6.82
2023-07-22T00:23:23.539Z,6.55
2023-07-22T00:25:50.838Z,7.38
2023-07-22T00:28:17.831Z,6.68
2023-07-22T00:30:45.055Z,6.65
2023-07-22T00:33:11.953Z,9.40
2023-07-22T00:35:39.072Z,9.95
2023-07-22T00:38:05.922Z,10.25
2023-07-22T00:40:33.306Z,9.45
2023-07-22T00:43:03.333Z,9.77
2023-07-22T00:45:30.441Z,9.40
2023-07-22T00:47:57.263Z,9.05
2023-07-22T00:50:25.596Z,8.88
2023-07-22T00:52:53.550Z,9.43
2023-07-22T00:55:20.993Z,8.70
2023-07-22T00:57:48.873Z,8.25
2023-07-22T01:00:17.392Z,10.20
2023-07-22T01:02:45.189Z,9.45
2023-07-22T01:05:13.936Z,8.80
2023-07-22T01:07:41.044Z,10.82
2023-07-22T01:10:09.508Z,10.40
2023-07-22T01:12:36.937Z,10.43
2023-07-22T01:15:08.906Z,10.70
2023-07-22T01:17:38.061Z,10.13
2023-07-22T01:20:06.410Z,10.95
2023-07-22T01:22:37.268Z,10.90
2023-07-22T01:25:04.675Z,11.82
2023-07-22T01:27:31.514Z,10.57
2023-07-22T01:29:58.636Z,11.32
2023-07-22T01:32:25.606Z,12.32
2023-07-22T01:34:52.727Z,10.40
2023-07-22T01:37:20.213Z,10.93
2023-07-22T01:39:47.324Z,10.13
2023-07-22T01:42:14.293Z,9.93
2023-07-22T01:44:41.533Z,9.13
2023-07-22T01:47:08.361Z,9.40
2023-07-22T01:49:35.472Z,9.43
2023-07-22T01:52:02.508Z,10.13
2023-07-22T01:54:29.582Z,10.02
2023-07-22T01:56:56.401Z,9.57
2023-07-22T01:59:23.530Z,10.00
2023-07-22T02:01:50.364Z,10.48
2023-07-22T02:04:17.501Z,10.43
2023-07-22T02:06:44.316Z,11.95
2023-07-22T02:09:14.669Z,11.90
2023-07-22T02:11:41.645Z,11.82
2023-07-22T02:14:09.203Z,12.35
2023-07-22T02:16:38.021Z,13.23
2023-07-22T02:19:05.663Z,12.32
2023-07-22T02:21:32.641Z,13.52
2023-07-22T02:23:59.796Z,13.60
2023-07-22T02:26:26.886Z,13.32
2023-07-22T02:28:54.225Z,13.20
2023-07-22T02:31:23.204Z,10.18
2023-07-22T02:33:50.379Z,12.82
2023-07-22T02:36:17.346Z,13.93
2023-07-22T02:38:44.423Z,12.27
2023-07-22T02:41:11.202Z,13.63
2023-07-22T02:43:38.257Z,15.00
2023-07-22T02:46:09.028Z,15.10
2023-07-22T02:48:36.331Z,16.35
2023-07-22T02:51:12.164Z,13.00
2023-07-22T02:53:39.464Z,13.70
2023-07-22T02:56:08.155Z,11.05
2023-07-22T02:58:35.489Z,12.98
2023-07-22T03:01:02.263Z,13.07
2023-07-22T03:03:29.281Z,12.90
2023-07-22T03:05:56.185Z,11.25
2023-07-22T03:08:23.332Z,11.43
2023-07-22T03:10:50.707Z,9.02
2023-07-22T03:13:17.930Z,9.63
2023-07-22T03:15:45.571Z,10.65
2023-07-22T03:18:12.980Z,11.25
2023-07-22T03:20:40.516Z,11.05
2023-07-22T03:23:07.931Z,9.15
2023-07-22T03:25:35.651Z,11.95
2023-07-22T03:28:06.711Z,12.10
2023-07-22T03:30:34.464Z,15.55
2023-07-22T03:33:02.035Z,16.83
2023-07-22T03:35:29.459Z,15.02
2023-07-22T03:37:56.872Z,15.98
2023-07-22T03:40:31.611Z,13.80
2023-07-22T03:42:58.979Z,11.25
2023-07-22T03:45:26.355Z,13.85
2023-07-22T03:47:58.136Z,14.50
2023-07-22T03:50:25.508Z,11.18
2023-07-22T03:52:52.572Z,12.02
2023-07-22T03:55:20.936Z,12.02
2023-07-22T03:57:48.083Z,10.73
2023-07-22T04:00:15.036Z,10.68
2023-07-22T04:02:42.348Z,10.60
2023-07-22T04:05:10.176Z,13.02
2023-07-22T04:07:39.116Z,13.07
2023-07-22T04:10:06.860Z,9.18
2023-07-22T04:12:34.060Z,12.77
2023-07-22T04:15:00.854Z,9.68
2023-07-22T04:17:27.904Z,12.30
2023-07-22T04:19:54.838Z,13.52
2023-07-22T04:22:22.679Z,12.82
2023-07-22T04:24:50.475Z,13.35
2023-07-22T04:27:18.523Z,12.60
2023-07-22T04:29:45.338Z,14.15
2023-07-22T04:32:12.613Z,14.27
2023-07-22T04:34:39.500Z,12.25
2023-07-22T04:37:06.678Z,15.18
2023-07-22T04:39:33.581Z,13.57
2023-07-22T04:42:00.899Z,14.52
2023-07-22T04:44:28.492Z,12.93
2023-07-22T04:46:55.747Z,12.18
2023-07-22T04:49:23.355Z,12.27
2023-07-22T04:51:51.389Z,10.00
2023-07-22T04:54:19.326Z,11.20
2023-07-22T04:56:46.825Z,10.18
2023-07-22T04:59:15.394Z,10.68
2023-07-22T05:01:42.812Z,12.00
2023-07-22T05:04:09.792Z,11.43
2023-07-22T05:06:37.514Z,11.75
2023-07-22T05:09:05.009Z,9.85
2023-07-22T05:11:32.480Z,10.40
2023-07-22T05:13:59.457Z,10.25
2023-07-22T05:16:27.179Z,10.65
2023-07-22T05:18:54.221Z,10.93
2023-07-22T05:21:21.326Z,10.20
2023-07-22T05:23:48.373Z,9.95
2023-07-22T05:26:15.621Z,9.95
2023-07-22T05:28:42.871Z,10.45
2023-07-22T05:31:10.354Z,10.10
2023-07-22T05:33:38.445Z,9.07
2023-07-22T05:36:05.739Z,7.32
2023-07-22T05:38:32.755Z,7.97
2023-07-22T05:41:00.321Z,8.30
2023-07-22T05:43:28.321Z,7.72
2023-07-22T05:45:55.479Z,8.43
2023-07-22T05:48:22.898Z,7.88
2023-07-22T05:50:50.333Z,7.78
2023-07-22T05:53:17.309Z,6.85
2023-07-22T05:55:44.335Z,6.10
2023-07-22T05:58:20.350Z,5.18
2023-07-22T06:00:47.916Z,6.22
2023-07-22T06:03:15.071Z,5.30
2023-07-22T06:05:42.282Z,5.63
2023-07-22T06:08:09.114Z,6.13
2023-07-22T06:10:38.109Z,5.75
2023-07-22T06:13:05.441Z,5.90
2023-07-22T06:15:32.738Z,4.75
2023-07-22T06:18:00.448Z,5.35
2023-07-22T06:20:27.781Z,6.72
2023-07-22T06:22:54.725Z,6.85
2023-07-22T06:25:22.012Z,6.70
2023-07-22T06:27:48.963Z,5.00
2023-07-22T06:30:16.027Z,6.70
2023-07-22T06:32:42.980Z,6.13
2023-07-22T06:35:10.495Z,6.00
2023-07-22T06:37:37.461Z,5.90
2023-07-22T06:40:05.273Z,6.03
2023-07-22T06:42:32.055Z,5.72
2023-07-22T06:44:59.237Z,5.53
2023-07-22T06:47:26.054Z,5.00
2023-07-22T06:49:53.888Z,4.57
2023-07-22T06:52:20.728Z,4.65
2023-07-22T06:54:48.006Z,4.40
2023-07-22T06:57:14.900Z,5.05
2023-07-22T06:59:41.926Z,4.57
2023-07-22T07:02:10.045Z,5.38
2023-07-22T07:04:37.462Z,4.90
2023-07-22T07:07:05.593Z,4.22
2023-07-22T07:09:32.931Z,4.30
2023-07-22T07:11:59.738Z,4.03
2023-07-22T07:14:26.858Z,4.35
2023-07-22T07:16:53.667Z,4.50
2023-07-22T07:19:21.355Z,4.47
2023-07-22T07:21:48.170Z,4.18
2023-07-22T07:24:15.257Z,4.15
2023-07-22T07:26:42.112Z,4.15
2023-07-22T07:29:09.152Z,3.88
2023-07-22T07:31:36.283Z,3.70
2023-07-22T07:34:03.515Z,4.07
2023-07-22T07:36:30.575Z,4.40
2023-07-22T07:38:58.067Z,4.18
2023-07-22T07:41:24.965Z,4.13
2023-07-22T07:43:52.006Z,3.72
2023-07-22T07:46:28.291Z,3.60
2023-07-22T07:48:58.059Z,4.22
2023-07-22T07:51:27.715Z,3.92
2023-07-22T07:53:55.803Z,3.65
2023-07-22T07:56:23.336Z,3.60
2023-07-22T07:58:52.185Z,3.30
2023-07-22T08:01:19.186Z,3.35
2023-07-22T08:03:46.878Z,3.72
2023-07-22T08:06:13.932Z,3.22
2023-07-22T08:08:41.504Z,3.40
2023-07-22T08:11:10.613Z,3.90
2023-07-22T08:13:38.727Z,3.38
2023-07-22T08:16:07.754Z,3.33
2023-07-22T08:18:35.821Z,3.95
2023-07-22T08:21:08.287Z,3.30
2023-07-22T08:23:36.213Z,3.42
2023-07-22T08:26:05.823Z,3.80
2023-07-22T08:28:33.552Z,3.92
2023-07-22T08:31:01.987Z,3.58
2023-07-22T08:33:39.752Z,3.13
2023-07-22T08:36:09.156Z,3.47
2023-07-22T08:38:36.272Z,4.10
2023-07-22T08:41:03.189Z,3.70
2023-07-22T08:43:30.821Z,3.30
2023-07-22T08:46:01.827Z,3.22
2023-07-22T08:48:34.171Z,2.95
2023-07-22T08:51:10.621Z,3.30
2023-07-22T08:53:38.935Z,3.03
2023-07-22T08:56:05.775Z,3.60
2023-07-22T08:58:33.614Z,3.75
2023-07-22T09:01:00.932Z,3.05
2023-07-22T09:03:28.956Z,3.35
2023-07-22T09:05:57.048Z,3.00
2023-07-22T09:08:24.301Z,3.10
2023-07-22T09:10:51.877Z,2.80
2023-07-22T09:13:20.662Z,3.10
2023-07-22T09:15:49.351Z,3.80
2023-07-22T09:18:17.102Z,2.83
2023-07-22T09:20:44.429Z,3.60
2023-07-22T09:23:14.481Z,3.20
2023-07-22T09:25:43.532Z,3.20
2023-07-22T09:28:11.377Z,3.25
2023-07-22T09:30:40.617Z,3.13
2023-07-22T09:33:20.572Z,2.88
2023-07-22T09:35:51.092Z,3.20
2023-07-22T09:38:25.971Z,2.95
2023-07-22T09:40:54.095Z,3.47
2023-07-22T09:43:24.006Z,3.20
2023-07-22T09:45:51.019Z,2.92
2023-07-22T09:48:18.652Z,3.20
2023-07-22T09:50:45.739Z,3.10
2023-07-22T09:53:17.527Z,2.90
2023-07-22T09:55:45.223Z,2.83
2023-07-22T09:58:16.093Z,2.70
2023-07-22T10:00:52.399Z,3.22
2023-07-22T10:03:21.013Z,3.28
2023-07-22T10:05:49.738Z,3.17
2023-07-22T10:08:19.825Z,3.00
2023-07-22T10:10:47.292Z,3.30
2023-07-22T10:13:14.577Z,3.17
2023-07-22T10:15:41.735Z,3.10
2023-07-22T10:18:11.663Z,3.13
2023-07-22T10:20:40.878Z,3.40
2023-07-22T10:23:09.726Z,3.20
2023-07-22T10:25:37.564Z,3.13
2023-07-22T10:28:07.009Z,3.28
2023-07-22T10:33:27.658Z,2.90
2023-07-22T10:36:08.125Z,3.25
2023-07-22T10:38:36.481Z,3.38
2023-07-22T10:41:13.472Z,2.70
2023-07-22T10:43:40.672Z,3.00
2023-07-22T10:46:13.437Z,3.35
2023-07-22T10:48:43.048Z,3.40
2023-07-22T10:51:16.044Z,3.28
2023-07-22T10:53:48.770Z,3.00
2023-07-22T10:56:25.858Z,2.63
2023-07-22T10:58:53.813Z,3.20
2023-07-22T11:01:27.260Z,3.10
2023-07-22T11:04:13.073Z,3.40
2023-07-22T11:06:41.531Z,3.38
2023-07-22T11:09:27.381Z,2.85
2023-07-22T11:12:03.546Z,3.22
2023-07-22T11:14:46.719Z,3.20
2023-07-22T11:17:14.253Z,2.90
2023-07-22T11:19:41.452Z,2.97
2023-07-22T11:22:08.772Z,2.75
2023-07-22T11:24:37.134Z,2.90
2023-07-22T11:27:09.493Z,2.72
2023-07-22T11:29:37.320Z,2.88
2023-07-22T11:32:06.265Z,2.90
2023-07-22T11:34:33.928Z,2.92
2023-07-22T11:37:01.112Z,2.53
2023-07-22T11:39:32.760Z,2.92
2023-07-22T11:42:02.844Z,2.95
2023-07-22T11:44:30.088Z,2.80
2023-07-22T11:47:09.076Z,2.80
2023-07-22T11:49:48.856Z,4.18
2023-07-22T11:52:19.223Z,4.13
2023-07-22T11:54:47.363Z,5.22
2023-07-22T11:57:25.245Z,3.83
2023-07-22T11:59:54.306Z,3.30
2023-07-22T12:02:26.414Z,4.10
2023-07-22T12:05:04.161Z,3.80
2023-07-22T12:07:39.271Z,3.83
2023-07-22T12:10:11.386Z,5.82
2023-07-22T12:12:51.030Z,10.50
2023-07-22T12:15:20.690Z,4.28
2023-07-22T12:17:56.117Z,5.07
2023-07-22T12:20:30.610Z,3.88
2023-07-22T12:22:58.970Z,3.42
2023-07-22T12:25:26.690Z,2.85
2023-07-22T12:27:54.279Z,4.28
2023-07-22T12:30:21.596Z,3.95
2023-07-22T12:32:49.526Z,3.40
2023-07-22T12:35:17.092Z,3.20
2023-07-22T12:37:44.563Z,3.50
2023-07-22T12:40:13.464Z,2.97
2023-07-22T12:42:41.769Z,3.58
2023-07-22T12:45:09.376Z,3.85
2023-07-22T12:47:38.021Z,3.60
2023-07-22T12:50:06.253Z,3.30
2023-07-22T12:52:33.361Z,3.50
2023-07-22T12:55:00.116Z,3.20
2023-07-22T12:57:27.089Z,3.70
2023-07-22T12:59:54.126Z,3.50
2023-07-22T13:02:21.354Z,3.10
2023-07-22T13:04:48.195Z,3.20
2023-07-22T13:07:15.392Z,3.28
2023-07-22T13:10:00.172Z,3.85
2023-07-22T13:12:27.543Z,3.60
2023-07-22T13:14:54.358Z,3.47
2023-07-22T13:17:22.033Z,3.00
2023-07-22T13:19:48.948Z,3.60
2023-07-22T13:22:16.135Z,3.03
2023-07-22T13:24:43.114Z,3.10
2023-07-22T13:27:10.346Z,3.97
2023-07-22T13:29:37.134Z,3.30
2023-07-22T13:32:05.501Z,3.47
2023-07-22T13:34:32.365Z,3.40
2023-07-22T13:36:59.688Z,3.50
2023-07-22T13:39:26.444Z,3.22
2023-07-22T13:41:54.155Z,3.30
2023-07-22T13:44:21.006Z,3.40
2023-07-22T13:46:48.992Z,3.17
2023-07-22T13:49:16.747Z,3.28
2023-07-22T13:51:46.856Z,3.90
2023-07-22T13:54:13.776Z,3.60
2023-07-22T13:56:40.978Z,2.92
2023-07-22T13:59:09.016Z,3.25
2023-07-22T14:01:36.223Z,3.70
2023-07-22T14:04:03.158Z,3.60
2023-07-22T14:06:31.903Z,3.10
2023-07-22T14:08:59.934Z,3.40
2023-07-22T14:11:27.305Z,3.42
2023-07-22T14:13:54.359Z,4.00
2023-07-22T14:16:23.282Z,3.63
2023-07-22T14:18:50.482Z,4.82
2023-07-22T14:21:17.607Z,3.42
2023-07-22T14:23:45.234Z,3.10
2023-07-22T14:26:12.730Z,4.18
2023-07-22T14:28:39.608Z,3.58
2023-07-22T14:31:06.982Z,3.22
2023-07-22T14:33:33.961Z,3.10
2023-07-22T14:36:01.028Z,3.72
2023-07-22T14:38:29.181Z,3.75
2023-07-22T14:40:56.379Z,2.95
2023-07-22T14:43:23.470Z,3.20
2023-07-22T14:45:50.695Z,3.20
2023-07-22T14:48:17.574Z,3.40
2023-07-22T14:50:44.861Z,3.10
2023-07-22T14:53:11.717Z,3.45
2023-07-22T14:55:38.837Z,2.80
2023-07-22T14:58:06.622Z,3.08
2023-07-22T15:00:34.253Z,3.22
2023-07-22T15:03:01.228Z,3.03
2023-07-22T15:05:28.612Z,2.92
2023-07-22T15:07:56.448Z,3.08
2023-07-22T15:10:25.177Z,3.20
2023-07-22T15:12:52.043Z,2.83
2023-07-22T15:15:19.278Z,2.90
2023-07-22T15:17:46.213Z,3.22
2023-07-22T15:20:13.776Z,2.95
2023-07-22T15:22:40.646Z,3.08
2023-07-22T15:25:08.199Z,3.13
2023-07-22T15:27:35.215Z,3.17
2023-07-22T15:30:02.309Z,2.92
2023-07-22T15:32:30.450Z,3.15
2023-07-22T15:34:57.659Z,3.10
2023-07-22T15:37:24.477Z,3.15
2023-07-22T15:39:51.560Z,3.15
2023-07-22T15:42:18.393Z,3.08
2023-07-22T15:44:45.389Z,3.13
2023-07-22T15:47:12.194Z,3.00
2023-07-22T15:49:39.318Z,2.90
2023-07-22T15:52:06.822Z,2.88
2023-07-22T15:54:33.880Z,3.00
2023-07-22T15:57:00.626Z,3.30
2023-07-22T15:59:27.699Z,2.95
2023-07-22T16:01:54.926Z,2.83
2023-07-22T16:04:22.670Z,3.28
2023-07-22T16:06:49.704Z,3.00
2023-07-22T16:09:16.999Z,3.10
2023-07-22T16:11:43.946Z,2.92
2023-07-22T16:14:11.106Z,3.00
2023-07-22T16:16:38.705Z,2.90
2023-07-22T16:19:06.666Z,3.33
2023-07-22T16:21:33.592Z,3.30
2023-07-22T16:24:00.675Z,3.58
2023-07-22T16:26:27.515Z,3.50
2023-07-22T16:28:54.672Z,3.75
2023-07-22T16:31:21.553Z,3.38
2023-07-22T16:33:49.442Z,2.95
2023-07-22T16:36:16.283Z,3.40
2023-07-22T16:38:43.353Z,3.65
2023-07-22T16:41:10.149Z,3.28
2023-07-22T16:43:37.280Z,3.50
2023-07-22T16:46:04.157Z,3.70
2023-07-22T16:48:31.367Z,3.60
2023-07-22T16:50:58.506Z,4.05
2023-07-22T16:53:25.685Z,3.30
2023-07-22T16:55:52.729Z,3.90
2023-07-22T16:58:20.284Z,3.40
2023-07-22T17:00:48.887Z,3.13
2023-07-22T17:03:17.530Z,3.20
2023-07-22T17:05:44.701Z,3.53
2023-07-22T17:08:11.984Z,4.07
2023-07-22T17:10:39.010Z,3.28
2023-07-22T17:13:06.152Z,3.10
2023-07-22T17:15:33.119Z,3.40
2023-07-22T17:18:00.400Z,3.33
2023-07-22T17:20:27.920Z,3.33
2023-07-22T17:22:55.139Z,3.65
2023-07-22T17:25:23.027Z,3.40
2023-07-22T17:27:50.112Z,3.30
2023-07-22T17:30:17.486Z,3.30
2023-07-22T17:32:47.445Z,3.40
2023-07-22T17:35:14.417Z,3.88
2023-07-22T17:37:41.678Z,3.78
2023-07-22T17:40:08.960Z,3.40
2023-07-22T17:42:36.355Z,3.67
2023-07-22T17:45:03.873Z,3.53
2023-07-22T17:47:30.940Z,3.80
2023-07-22T17:49:58.436Z,3.58
2023-07-22T17:52:25.622Z,3.90
2023-07-22T17:54:52.572Z,3.83
2023-07-22T17:57:20.007Z,4.13
2023-07-22T17:59:48.409Z,3.90
2023-07-22T18:02:17.560Z,3.90
2023-07-22T18:04:44.527Z,3.58
2023-07-22T18:07:11.686Z,3.97
2023-07-22T18:09:38.621Z,4.50
2023-07-22T18:12:06.374Z,3.90
2023-07-22T18:14:35.490Z,4.50
2023-07-22T18:17:02.761Z,4.10
2023-07-22T18:19:29.652Z,4.78
2023-07-22T18:21:57.183Z,4.78
2023-07-22T18:24:24.291Z,4.35
2023-07-22T18:26:51.513Z,4.32
2023-07-22T18:29:18.379Z,4.05
2023-07-22T18:31:46.377Z,4.13
2023-07-22T18:34:13.160Z,4.63
2023-07-22T18:36:40.631Z,4.05
2023-07-22T18:39:08.047Z,4.40
2023-07-22T18:41:35.956Z,4.70
2023-07-22T18:44:05.111Z,4.70
2023-07-22T18:46:32.278Z,4.47
2023-07-22T18:48:59.809Z,4.30
2023-07-22T18:51:32.745Z,4.70
2023-07-22T18:54:00.894Z,4.47
2023-07-22T18:56:28.561Z,5.00
2023-07-22T18:58:58.308Z,8.27
2023-07-22T19:01:26.193Z,6.75
2023-07-22T19:03:53.274Z,5.68
2023-07-22T19:06:26.983Z,5.90
2023-07-22T19:08:53.964Z,6.80
2023-07-22T19:11:21.788Z,6.18
2023-07-22T19:13:48.833Z,6.68
2023-07-22T19:16:15.987Z,6.97
2023-07-22T19:18:43.164Z,8.10
2023-07-22T19:21:10.764Z,8.30
2023-07-22T19:23:37.847Z,8.18
2023-07-22T19:26:07.077Z,7.72
2023-07-22T19:28:34.774Z,7.07
2023-07-22T19:31:01.965Z,6.38
2023-07-22T19:33:28.882Z,6.50
2023-07-22T19:36:03.148Z,6.13
2023-07-22T19:38:30.688Z,7.90
2023-07-22T19:41:11.116Z,9.05
2023-07-22T19:43:40.487Z,7.70
2023-07-22T19:46:16.003Z,6.75
2023-07-22T19:48:44.183Z,6.82
2023-07-22T19:51:13.252Z,7.70
2023-07-22T19:53:41.999Z,6.97
2023-07-22T19:56:09.969Z,7.43
2023-07-22T19:58:37.092Z,7.03
2023-07-22T20:01:05.053Z,7.53
2023-07-22T20:03:36.853Z,5.88
2023-07-22T20:06:06.155Z,6.18
2023-07-22T20:08:33.054Z,6.10
2023-07-22T20:11:00.229Z,6.38
2023-07-22T20:13:27.166Z,5.75
2023-07-22T20:15:54.370Z,6.53
2023-07-22T20:18:21.371Z,7.20
2023-07-22T20:20:48.733Z,7.25
2023-07-22T20:23:15.560Z,6.15
2023-07-22T20:25:42.691Z,5.78
2023-07-22T20:28:09.589Z,5.22
2023-07-22T20:30:36.761Z,5.40
2023-07-22T20:33:03.934Z,6.18
2023-07-22T20:35:31.206Z,5.90
2023-07-22T20:37:58.292Z,7.18
2023-07-22T20:40:25.536Z,6.30
2023-07-22T20:42:52.541Z,5.85
2023-07-22T20:45:20.040Z,6.43
2023-07-22T20:47:47.003Z,6.22
2023-07-22T20:50:14.186Z,6.25
2023-07-22T20:52:40.952Z,6.15
2023-07-22T20:55:08.577Z,6.10
2023-07-22T20:57:36.281Z,6.57
2023-07-22T21:00:04.796Z,7.28
2023-07-22T21:02:32.161Z,6.30
2023-07-22T21:05:00.008Z,6.72
2023-07-22T21:07:26.829Z,5.85
2023-07-22T21:09:54.273Z,6.72
2023-07-22T21:12:21.133Z,6.43
2023-07-22T21:14:48.180Z,5.75
2023-07-22T21:17:15.603Z,5.78
2023-07-22T21:19:42.826Z,5.43
2023-07-22T21:22:11.026Z,5.47
2023-07-22T21:24:38.089Z,5.82
2023-07-22T21:27:05.219Z,7.18
2023-07-22T21:29:32.900Z,6.32
2023-07-22T21:32:00.739Z,5.85
2023-07-22T21:34:28.669Z,5.22
2023-07-22T21:36:55.503Z,5.55
2023-07-22T21:39:22.627Z,6.05
2023-07-22T21:41:49.698Z,6.72
2023-07-22T21:44:17.656Z,5.60
2023-07-22T21:46:44.465Z,5.60
2023-07-22T21:49:11.558Z,5.40
2023-07-22T21:51:40.462Z,5.10
2023-07-22T21:54:07.675Z,5.82
2023-07-22T21:56:34.885Z,5.20
2023-07-22T21:59:01.890Z,4.90
2023-07-22T22:01:29.062Z,4.43
2023-07-22T22:03:56.495Z,5.07
2023-07-22T22:06:23.252Z,5.28
2023-07-22T22:08:50.323Z,5.03
2023-07-22T22:11:17.183Z,4.40
2023-07-22T22:13:44.773Z,5.10
2023-07-22T22:16:11.702Z,5.55
2023-07-22T22:18:38.929Z,4.80
2023-07-22T22:21:05.657Z,4.80
2023-07-22T22:23:32.822Z,5.22
2023-07-22T22:25:59.622Z,4.53
2023-07-22T22:28:26.742Z,4.22
2023-07-22T22:30:53.602Z,4.85
2023-07-22T22:33:20.698Z,4.15
2023-07-22T22:35:47.463Z,4.40
2023-07-22T22:38:14.478Z,5.00
2023-07-22T22:40:41.399Z,4.85
2023-07-22T22:43:08.490Z,4.53
2023-07-22T22:45:35.280Z,5.30
2023-07-22T22:48:02.528Z,5.13
2023-07-22T22:50:29.322Z,4.97
2023-07-22T22:52:56.458Z,4.88
2023-07-22T22:55:23.394Z,5.55
2023-07-22T22:57:51.190Z,4.57
2023-07-22T23:00:18.323Z,5.18
2023-07-22T23:02:47.862Z,5.18
2023-07-22T23:05:15.132Z,4.70
2023-07-22T23:07:42.240Z,5.38
2023-07-22T23:10:09.510Z,4.80
2023-07-22T23:12:40.351Z,5.45
2023-07-22T23:15:10.195Z,5.05
2023-07-22T23:17:37.848Z,5.28
2023-07-22T23:20:05.563Z,5.18
2023-07-22T23:22:33.412Z,4.95
2023-07-22T23:25:00.276Z,4.90
2023-07-22T23:27:27.506Z,5.32
2023-07-22T23:29:54.460Z,6.40
2023-07-22T23:32:21.543Z,5.20
2023-07-22T23:34:52.223Z,5.65
2023-07-22T23:37:19.401Z,5.45
2023-07-22T23:39:46.224Z,5.88
2023-07-22T23:42:13.375Z,5.97
2023-07-22T23:44:40.716Z,5.35
2023-07-22T23:47:07.804Z,5.50
2023-07-22T23:49:34.817Z,5.03
2023-07-22T23:52:02.373Z,5.90
2023-07-22T23:54:29.401Z,6.25
2023-07-22T23:56:56.575Z,5.68
2023-07-22T23:59:23.469Z,5.70
